createdAt,value
2023-01-25T00:01:20.728Z,5.90
2023-01-25T00:04:24.527Z,6.00
2023-01-25T00:07:27.749Z,5.90
2023-01-25T00:10:30.880Z,6.00
2023-01-25T00:13:35.378Z,5.90
2023-01-25T00:16:39.116Z,5.90
2023-01-25T00:19:42.505Z,6.00
2023-01-25T00:22:45.650Z,6.00
2023-01-25T00:25:48.995Z,6.00
2023-01-25T00:28:54.794Z,6.00
2023-01-25T00:32:09.808Z,6.10
2023-01-25T00:35:13.874Z,6.10
2023-01-25T00:38:29.043Z,6.10
2023-01-25T00:41:32.456Z,6.10
2023-01-25T00:44:37.214Z,6.10
2023-01-25T00:47:40.527Z,6.00
2023-01-25T00:50:43.678Z,6.00
2023-01-25T00:53:46.869Z,5.90
2023-01-25T00:56:52.522Z,5.90
2023-01-25T00:59:57.257Z,5.90
2023-01-25T01:03:00.393Z,5.90
2023-01-25T01:06:05.803Z,5.90
2023-01-25T01:09:13.938Z,5.90
2023-01-25T01:12:17.041Z,5.80
2023-01-25T01:15:21.557Z,5.80
2023-01-25T01:18:24.884Z,5.70
2023-01-25T01:21:28.244Z,5.70
2023-01-25T01:24:31.515Z,5.70
2023-01-25T01:27:34.696Z,5.70
2023-01-25T01:30:39.857Z,5.60
2023-01-25T01:33:43.235Z,5.60
2023-01-25T01:36:46.825Z,5.50
2023-01-25T01:39:50.032Z,5.50
2023-01-25T01:43:01.150Z,5.50
2023-01-25T01:46:07.698Z,5.50
2023-01-25T01:49:16.545Z,5.60
2023-01-25T01:52:23.047Z,5.60
2023-01-25T01:55:26.306Z,5.60
2023-01-25T01:58:31.300Z,5.50
2023-01-25T02:01:36.370Z,5.60
2023-01-25T02:04:39.604Z,5.60
2023-01-25T02:07:42.816Z,5.60
2023-01-25T02:10:47.193Z,5.60
2023-01-25T02:13:50.758Z,5.60
2023-01-25T02:16:55.422Z,5.60
2023-01-25T02:20:03.084Z,5.60
2023-01-25T02:23:12.686Z,5.60
2023-01-25T02:26:18.498Z,5.60
2023-01-25T02:29:24.189Z,5.70
2023-01-25T02:32:28.315Z,5.70
2023-01-25T02:35:41.694Z,5.70
2023-01-25T02:38:49.464Z,5.70
2023-01-25T02:41:54.031Z,5.70
2023-01-25T02:44:57.166Z,5.70
2023-01-25T02:48:00.293Z,5.70
2023-01-25T02:51:03.716Z,5.80
2023-01-25T02:54:08.891Z,5.70
2023-01-25T02:57:13.380Z,5.50
2023-01-25T03:00:17.089Z,5.40
2023-01-25T03:03:20.252Z,5.40
2023-01-25T03:06:23.451Z,5.30
2023-01-25T03:09:26.675Z,5.20
2023-01-25T03:12:31.301Z,5.10
2023-01-25T03:15:34.561Z,5.20
2023-01-25T03:18:38.426Z,5.20
2023-01-25T03:21:42.169Z,5.10
2023-01-25T03:24:45.329Z,5.20
2023-01-25T03:27:50.228Z,5.10
2023-01-25T03:30:54.563Z,5.20
2023-01-25T03:33:57.715Z,5.20
2023-01-25T03:37:01.023Z,5.10
2023-01-25T03:40:04.361Z,5.10
2023-01-25T03:43:08.874Z,5.10
2023-01-25T03:46:12.026Z,5.10
2023-01-25T03:49:15.171Z,5.20
2023-01-25T03:52:18.533Z,5.30
2023-01-25T03:55:21.672Z,5.30
2023-01-25T03:58:26.382Z,5.40
2023-01-25T04:01:29.561Z,5.40
2023-01-25T04:04:32.707Z,5.40
2023-01-25T04:07:35.880Z,5.50
2023-01-25T04:10:39.007Z,5.50
2023-01-25T04:13:43.555Z,5.50
2023-01-25T04:16:46.715Z,5.50
2023-01-25T04:19:49.894Z,5.50
2023-01-25T04:22:53.122Z,5.40
2023-01-25T04:25:57.217Z,5.40
2023-01-25T04:29:01.784Z,5.40
2023-01-25T04:32:05.373Z,5.30
2023-01-25T04:35:09.570Z,5.30
2023-01-25T04:38:13.650Z,5.30
2023-01-25T04:41:16.858Z,5.30
2023-01-25T04:44:21.397Z,5.30
2023-01-25T04:47:24.552Z,5.30
2023-01-25T04:50:27.899Z,5.30
2023-01-25T04:53:31.040Z,5.30
2023-01-25T04:56:35.530Z,5.30
2023-01-25T04:59:40.074Z,5.20
2023-01-25T05:02:43.810Z,5.20
2023-01-25T05:05:48.730Z,5.20
2023-01-25T05:08:51.900Z,5.10
2023-01-25T05:11:55.341Z,5.00
2023-01-25T05:14:59.943Z,5.00
2023-01-25T05:18:03.146Z,5.00
2023-01-25T05:21:26.533Z,5.00
2023-01-25T05:24:30.823Z,5.00
2023-01-25T05:27:34.009Z,5.00
2023-01-25T05:30:38.600Z,5.00
2023-01-25T05:33:42.454Z,5.10
2023-01-25T05:36:45.631Z,5.10
2023-01-25T05:39:49.102Z,5.10
2023-01-25T05:42:55.903Z,5.10
2023-01-25T05:46:00.538Z,5.10
2023-01-25T05:49:03.698Z,5.10
2023-01-25T05:52:06.926Z,5.10
2023-01-25T05:55:12.595Z,5.10
2023-01-25T05:58:17.096Z,5.20
2023-01-25T06:01:21.982Z,5.20
2023-01-25T06:04:25.163Z,5.20
2023-01-25T06:07:28.349Z,5.30
2023-01-25T06:10:31.500Z,5.30
2023-01-25T06:13:34.735Z,5.40
2023-01-25T06:16:39.328Z,5.40
2023-01-25T06:19:42.472Z,5.40
2023-01-25T06:22:50.890Z,5.50
2023-01-25T06:25:55.333Z,5.40
2023-01-25T06:28:58.572Z,5.40
2023-01-25T06:32:03.194Z,5.40
2023-01-25T06:35:07.320Z,5.40
2023-01-25T06:38:10.755Z,5.40
2023-01-25T06:41:13.935Z,5.40
2023-01-25T06:44:17.074Z,5.50
2023-01-25T06:47:21.660Z,5.50
2023-01-25T06:50:24.796Z,5.40
2023-01-25T06:53:28.875Z,5.40
2023-01-25T06:56:32.753Z,5.40
2023-01-25T06:59:35.978Z,5.40
2023-01-25T07:02:40.592Z,5.40
2023-01-25T07:05:43.812Z,5.40
2023-01-25T07:08:47.058Z,5.40
2023-01-25T07:11:50.234Z,5.40
2023-01-25T07:14:53.411Z,5.40
2023-01-25T07:18:03.202Z,5.40
2023-01-25T07:21:15.939Z,5.40
2023-01-25T07:24:20.608Z,5.50
2023-01-25T07:27:23.780Z,5.40
2023-01-25T07:30:26.913Z,5.30
2023-01-25T07:33:31.482Z,5.10
2023-01-25T07:36:34.638Z,5.10
2023-01-25T07:39:37.862Z,5.00
2023-01-25T07:42:41.049Z,5.00
2023-01-25T07:45:48.662Z,5.00
2023-01-25T07:48:54.202Z,5.00
2023-01-25T07:51:57.402Z,4.90
2023-01-25T07:55:00.620Z,4.80
2023-01-25T07:58:03.827Z,4.80
2023-01-25T08:01:11.116Z,4.80
2023-01-25T08:04:15.686Z,4.90
2023-01-25T08:07:20.244Z,5.00
2023-01-25T08:10:23.552Z,5.10
2023-01-25T08:13:26.717Z,5.30
2023-01-25T08:16:30.835Z,5.40
2023-01-25T08:19:35.749Z,5.40
2023-01-25T08:22:39.000Z,5.40
2023-01-25T08:25:42.211Z,5.40
2023-01-25T08:28:45.693Z,5.50
2023-01-25T08:31:48.973Z,5.60
2023-01-25T08:34:53.569Z,5.60
2023-01-25T08:37:56.737Z,5.60
2023-01-25T08:41:06.317Z,5.70
2023-01-25T08:44:11.060Z,5.80
2023-01-25T08:47:14.305Z,5.80
2023-01-25T08:50:19.111Z,5.90
2023-01-25T08:53:23.004Z,6.00
2023-01-25T08:56:26.196Z,6.00
2023-01-25T08:59:29.398Z,6.00
2023-01-25T09:02:32.602Z,6.10
2023-01-25T09:05:37.776Z,6.20
2023-01-25T09:08:41.480Z,6.30
2023-01-25T09:11:44.682Z,6.30
2023-01-25T09:14:47.864Z,6.40
2023-01-25T09:17:52.737Z,6.60
2023-01-25T09:20:57.406Z,6.60
2023-01-25T09:24:06.684Z,6.70
2023-01-25T09:27:10.353Z,6.80
2023-01-25T09:30:18.807Z,6.80
2023-01-25T09:33:25.344Z,6.80
2023-01-25T09:36:29.937Z,6.70
2023-01-25T09:39:33.122Z,6.70
2023-01-25T09:43:01.850Z,6.70
2023-01-25T09:46:16.083Z,6.70
2023-01-25T09:49:29.470Z,6.70
2023-01-25T09:53:13.122Z,6.60
2023-01-25T09:56:24.192Z,6.70
2023-01-25T09:59:31.616Z,6.70
2023-01-25T10:02:43.786Z,6.60
2023-01-25T10:05:49.640Z,6.60
2023-01-25T10:09:01.853Z,6.50
2023-01-25T10:12:12.132Z,6.50
2023-01-25T10:15:21.013Z,6.40
2023-01-25T10:18:32.597Z,6.40
2023-01-25T10:21:39.309Z,6.30
2023-01-25T10:25:01.441Z,6.30
2023-01-25T10:28:30.000Z,6.20
2023-01-25T10:31:40.983Z,6.20
2023-01-25T10:34:56.193Z,6.30
2023-01-25T10:38:06.025Z,6.40
2023-01-25T10:41:15.117Z,6.40
2023-01-25T10:44:25.439Z,6.40
2023-01-25T10:47:32.279Z,6.40
2023-01-25T10:50:47.843Z,6.40
2023-01-25T10:54:00.878Z,6.30
2023-01-25T10:57:08.263Z,6.20
2023-01-25T11:00:29.913Z,6.20
2023-01-25T11:03:38.748Z,6.20
2023-01-25T11:06:50.494Z,6.20
2023-01-25T11:09:53.713Z,6.20
2023-01-25T11:13:23.076Z,6.20
2023-01-25T11:16:31.589Z,6.30
2023-01-25T11:19:36.907Z,6.30
2023-01-25T11:22:53.021Z,6.30
2023-01-25T11:26:13.317Z,6.40
2023-01-25T11:29:19.745Z,6.40
2023-01-25T11:32:25.179Z,6.40
2023-01-25T11:35:34.117Z,6.40
2023-01-25T11:38:38.821Z,6.40
2023-01-25T11:41:56.484Z,6.40
2023-01-25T11:45:25.768Z,6.50
2023-01-25T11:49:06.028Z,6.60
2023-01-25T11:52:22.632Z,6.60
2023-01-25T11:55:29.818Z,6.70
2023-01-25T11:59:03.913Z,6.70
2023-01-25T12:02:38.400Z,6.80
2023-01-25T12:05:54.686Z,6.80
2023-01-25T12:09:20.125Z,6.90
2023-01-25T12:12:28.822Z,6.90
2023-01-25T12:15:44.619Z,6.90
2023-01-25T12:19:05.009Z,6.90
2023-01-25T12:22:32.296Z,6.90
2023-01-25T12:25:45.641Z,6.80
2023-01-25T12:28:53.047Z,6.80
2023-01-25T12:31:59.783Z,6.70
2023-01-25T12:35:22.548Z,6.50
2023-01-25T12:38:30.359Z,6.40
2023-01-25T12:41:41.185Z,6.30
2023-01-25T12:44:48.620Z,6.20
2023-01-25T12:47:57.539Z,6.20
2023-01-25T12:51:02.027Z,6.20
2023-01-25T12:54:11.697Z,6.20
2023-01-25T12:57:25.322Z,6.20
2023-01-25T13:00:36.084Z,6.10
2023-01-25T13:03:51.415Z,6.10
2023-01-25T13:07:02.776Z,6.10
2023-01-25T13:10:17.120Z,6.10
2023-01-25T13:13:26.474Z,6.00
2023-01-25T13:16:43.323Z,6.10
2023-01-25T13:19:46.499Z,6.00
2023-01-25T13:23:00.291Z,5.90
2023-01-25T13:26:46.855Z,5.80
2023-01-25T13:30:00.658Z,5.80
2023-01-25T13:33:07.311Z,5.80
2023-01-25T13:36:47.093Z,5.90
2023-01-25T13:39:53.765Z,5.70
2023-01-25T13:43:01.993Z,5.70
2023-01-25T13:46:07.560Z,5.70
2023-01-25T13:49:22.216Z,5.60
2023-01-25T13:52:26.945Z,5.60
2023-01-25T13:55:40.346Z,5.60
2023-01-25T13:58:48.152Z,5.60
2023-01-25T14:01:52.713Z,5.60
2023-01-25T14:04:56.973Z,5.50
2023-01-25T14:08:00.149Z,5.50
2023-01-25T14:11:04.833Z,5.60
2023-01-25T14:14:20.771Z,5.60
2023-01-25T14:17:25.090Z,5.50
2023-01-25T14:20:28.408Z,5.50
2023-01-25T14:23:34.275Z,5.50
2023-01-25T14:26:42.056Z,5.50
2023-01-25T14:29:49.954Z,5.50
2023-01-25T14:32:55.986Z,5.40
2023-01-25T14:36:16.369Z,5.50
2023-01-25T14:39:29.865Z,5.60
2023-01-25T14:42:34.571Z,5.70
2023-01-25T14:45:37.785Z,5.70
2023-01-25T14:48:43.255Z,5.60
2023-01-25T14:51:49.516Z,5.60
2023-01-25T14:54:55.552Z,5.40
2023-01-25T14:58:02.691Z,5.30
2023-01-25T15:01:06.156Z,5.30
2023-01-25T15:04:14.127Z,5.30
2023-01-25T15:07:45.610Z,5.30
2023-01-25T15:10:53.207Z,5.40
2023-01-25T15:14:05.956Z,5.40
2023-01-25T15:17:39.757Z,5.40
2023-01-25T15:20:43.629Z,5.40
2023-01-25T15:23:48.170Z,5.40
2023-01-25T15:26:53.130Z,5.20
2023-01-25T15:29:59.515Z,5.00
2023-01-25T15:33:03.230Z,4.90
2023-01-25T15:36:06.732Z,4.80
2023-01-25T15:39:14.472Z,4.90
2023-01-25T15:42:18.157Z,4.90
2023-01-25T15:45:23.037Z,4.50
2023-01-25T15:48:33.019Z,4.40
2023-01-25T15:51:36.332Z,4.40
2023-01-25T15:54:40.827Z,4.40
2023-01-25T15:57:48.520Z,4.60
2023-01-25T16:00:53.357Z,4.60
2023-01-25T16:03:59.614Z,4.50
2023-01-25T16:07:02.938Z,4.50
2023-01-25T16:10:07.631Z,4.50
2023-01-25T16:13:11.977Z,4.60
2023-01-25T16:16:19.976Z,4.70
2023-01-25T16:19:24.983Z,4.70
2023-01-25T16:22:29.011Z,4.60
2023-01-25T16:25:32.248Z,4.60
2023-01-25T16:28:36.659Z,4.70
2023-01-25T16:31:42.767Z,4.70
2023-01-25T16:34:46.985Z,4.80
2023-01-25T16:37:52.288Z,4.80
2023-01-25T16:40:58.492Z,4.80
2023-01-25T16:44:02.219Z,4.90
2023-01-25T16:47:08.367Z,4.90
2023-01-25T16:50:16.833Z,4.90
2023-01-25T16:53:20.428Z,4.80
2023-01-25T16:56:25.501Z,4.70
2023-01-25T16:59:34.213Z,4.60
2023-01-25T17:02:41.885Z,4.70
2023-01-25T17:05:50.817Z,4.80
2023-01-25T17:08:58.871Z,4.80
2023-01-25T17:12:03.089Z,4.80
2023-01-25T17:15:09.439Z,4.80
2023-01-25T17:18:15.704Z,4.80
2023-01-25T17:21:21.623Z,4.70
2023-01-25T17:24:25.373Z,4.80
2023-01-25T17:27:30.154Z,4.70
2023-01-25T17:30:35.210Z,4.70
2023-01-25T17:33:41.417Z,4.80
2023-01-25T17:36:46.201Z,4.70
2023-01-25T17:39:52.250Z,4.70
2023-01-25T17:42:57.141Z,4.80
2023-01-25T17:46:01.960Z,4.70
2023-01-25T17:49:08.927Z,4.80
2023-01-25T17:52:13.657Z,4.80
2023-01-25T17:55:18.851Z,4.80
2023-01-25T17:58:23.687Z,4.80
2023-01-25T18:01:35.313Z,4.80
2023-01-25T18:04:41.582Z,4.80
2023-01-25T18:07:46.537Z,4.80
2023-01-25T18:10:51.052Z,4.70
2023-01-25T18:13:59.108Z,4.60
2023-01-25T18:17:06.693Z,4.60
2023-01-25T18:20:14.378Z,4.60
2023-01-25T18:23:25.314Z,4.50
2023-01-25T18:26:31.344Z,4.50
2023-01-25T18:29:48.930Z,4.40
2023-01-25T18:32:56.548Z,4.50
2023-01-25T18:36:05.491Z,4.50
2023-01-25T18:39:12.434Z,4.50
2023-01-25T18:42:20.454Z,4.40
2023-01-25T18:45:25.092Z,4.40
2023-01-25T18:48:31.893Z,4.30
2023-01-25T18:52:05.256Z,4.30
2023-01-25T18:55:17.499Z,4.20
2023-01-25T18:58:22.918Z,4.10
2023-01-25T19:01:28.121Z,4.00
2023-01-25T19:04:33.192Z,4.00
2023-01-25T19:07:39.908Z,4.10
2023-01-25T19:10:45.103Z,4.20
2023-01-25T19:13:50.527Z,4.30
2023-01-25T19:16:55.755Z,4.30
2023-01-25T19:20:03.592Z,4.40
2023-01-25T19:23:10.062Z,4.40
2023-01-25T19:26:19.156Z,4.50
2023-01-25T19:29:24.824Z,4.50
2023-01-25T19:32:31.863Z,4.40
2023-01-25T19:35:41.748Z,4.30
2023-01-25T19:38:51.954Z,4.30
2023-01-25T19:41:57.977Z,4.30
2023-01-25T19:45:13.347Z,4.40
2023-01-25T19:48:19.592Z,4.30
2023-01-25T19:51:28.913Z,4.30
2023-01-25T19:54:37.734Z,4.30
2023-01-25T19:57:42.664Z,4.30
2023-01-25T20:00:48.740Z,4.40
2023-01-25T20:03:54.489Z,4.40
2023-01-25T20:07:00.878Z,4.40
2023-01-25T20:10:08.538Z,4.40
2023-01-25T20:13:13.694Z,4.40
2023-01-25T20:16:19.338Z,4.40
2023-01-25T20:19:24.729Z,4.40
2023-01-25T20:22:30.605Z,4.50
2023-01-25T20:25:37.329Z,4.50
2023-01-25T20:28:43.606Z,4.40
2023-01-25T20:31:48.955Z,4.40
2023-01-25T20:34:54.045Z,4.50
2023-01-25T20:37:59.474Z,4.60
2023-01-25T20:41:09.789Z,4.60
2023-01-25T20:44:17.644Z,4.60
2023-01-25T20:47:22.733Z,4.50
2023-01-25T20:50:27.527Z,4.50
2023-01-25T20:53:34.720Z,4.60
2023-01-25T20:56:41.550Z,4.60
2023-01-25T20:59:47.147Z,4.60
2023-01-25T21:02:51.947Z,4.50
2023-01-25T21:05:58.241Z,4.50
2023-01-25T21:09:03.490Z,4.50
2023-01-25T21:12:10.417Z,4.50
2023-01-25T21:15:18.018Z,4.60
2023-01-25T21:18:23.957Z,4.60
2023-01-25T21:21:30.412Z,4.60
2023-01-25T21:24:35.558Z,4.60
2023-01-25T21:27:41.616Z,4.50
2023-01-25T21:30:46.085Z,4.50
2023-01-25T21:33:53.648Z,4.30
2023-01-25T21:36:58.254Z,4.30
2023-01-25T21:40:02.382Z,4.40
2023-01-25T21:43:07.796Z,4.40
2023-01-25T21:46:13.763Z,4.40
2023-01-25T21:49:34.453Z,4.40
2023-01-25T21:52:37.916Z,4.40
2023-01-25T21:55:41.585Z,4.40
2023-01-25T21:58:48.924Z,4.40
2023-01-25T22:01:53.176Z,4.30
2023-01-25T22:04:56.492Z,4.20
2023-01-25T22:08:00.754Z,4.20
2023-01-25T22:11:04.352Z,4.10
2023-01-25T22:14:09.234Z,4.10
2023-01-25T22:17:12.425Z,4.20
2023-01-25T22:20:15.799Z,4.10
2023-01-25T22:23:18.957Z,4.10
2023-01-25T22:26:24.598Z,4.00
2023-01-25T22:29:29.931Z,4.00
2023-01-25T22:32:33.105Z,3.90
2023-01-25T22:35:36.297Z,4.00
2023-01-25T22:38:39.607Z,3.90
2023-01-25T22:41:43.540Z,3.90
2023-01-25T22:44:48.060Z,3.90
2023-01-25T22:47:51.220Z,3.80
2023-01-25T22:50:54.407Z,3.80
2023-01-25T22:53:58.221Z,3.80
2023-01-25T22:57:01.650Z,3.80
2023-01-25T23:00:08.195Z,3.90
2023-01-25T23:03:12.217Z,3.80
2023-01-25T23:06:17.428Z,3.70
2023-01-25T23:09:20.610Z,3.70
2023-01-25T23:12:24.541Z,3.70
2023-01-25T23:15:29.148Z,3.60
2023-01-25T23:18:49.966Z,3.70
2023-01-25T23:21:53.062Z,3.70
2023-01-25T23:24:56.279Z,3.70
2023-01-25T23:27:59.864Z,3.70
2023-01-25T23:31:18.287Z,3.80
2023-01-25T23:34:21.598Z,3.80
2023-01-25T23:37:24.886Z,3.70
2023-01-25T23:40:28.079Z,3.80
2023-01-25T23:43:31.417Z,3.80
2023-01-25T23:46:36.007Z,3.70
2023-01-25T23:49:39.235Z,3.70
2023-01-25T23:52:42.423Z,3.60
2023-01-25T23:55:53.068Z,3.70
2023-01-25T23:58:56.255Z,3.70
